createdAt,value
2023-05-09T00:00:07.073Z,10.63
2023-05-09T00:01:07.039Z,10.63
2023-05-09T00:02:07.124Z,10.64
2023-05-09T00:03:07.035Z,10.64
2023-05-09T00:04:07.029Z,10.65
2023-05-09T00:05:06.997Z,10.65
2023-05-09T00:06:06.990Z,10.65
2023-05-09T00:07:06.971Z,10.66
2023-05-09T00:08:06.983Z,10.66
2023-05-09T00:09:06.945Z,10.66
2023-05-09T00:10:06.928Z,10.66
2023-05-09T00:11:06.906Z,10.67
2023-05-09T00:12:06.898Z,10.68
2023-05-09T00:13:06.934Z,10.69
2023-05-09T00:14:06.871Z,10.69
2023-05-09T00:15:06.868Z,10.70
2023-05-09T00:16:06.883Z,10.70
2023-05-09T00:17:06.823Z,10.71
2023-05-09T00:18:06.825Z,10.71
2023-05-09T00:19:06.802Z,10.71
2023-05-09T00:20:06.791Z,10.71
2023-05-09T00:21:06.792Z,10.71
2023-05-09T00:22:06.764Z,10.71
2023-05-09T00:23:06.836Z,10.71
2023-05-09T00:24:06.757Z,10.71
2023-05-09T00:25:06.729Z,10.71
2023-05-09T00:26:06.729Z,10.72
2023-05-09T00:27:06.692Z,10.72
2023-05-09T00:28:06.698Z,10.72
2023-05-09T00:29:06.671Z,10.72
2023-05-09T00:30:06.691Z,10.73
2023-05-09T00:31:06.637Z,10.74
2023-05-09T00:32:06.673Z,10.75
2023-05-09T00:33:06.671Z,10.76
2023-05-09T00:34:06.599Z,10.77
2023-05-09T00:35:06.595Z,10.79
2023-05-09T00:36:06.594Z,10.80
2023-05-09T00:37:06.557Z,10.82
2023-05-09T00:38:06.559Z,10.82
2023-05-09T00:39:06.538Z,10.82
2023-05-09T00:40:06.608Z,10.82
2023-05-09T00:41:06.512Z,10.82
2023-05-09T00:42:06.519Z,10.81
2023-05-09T00:43:06.495Z,10.81
2023-05-09T00:44:06.465Z,10.82
2023-05-09T00:45:06.454Z,10.82
2023-05-09T00:46:06.511Z,10.82
2023-05-09T00:47:06.458Z,10.83
2023-05-09T00:48:06.497Z,10.83
2023-05-09T00:49:06.422Z,10.82
2023-05-09T00:50:06.398Z,10.82
2023-05-09T00:51:06.393Z,10.81
2023-05-09T00:52:06.392Z,10.80
2023-05-09T00:53:06.375Z,10.79
2023-05-09T00:54:09.032Z,10.78
2023-05-09T00:55:06.331Z,10.77
2023-05-09T00:56:06.315Z,10.76
2023-05-09T00:57:06.325Z,10.75
2023-05-09T00:58:06.281Z,10.75
2023-05-09T00:59:06.310Z,10.74
2023-05-09T01:00:06.269Z,10.74
2023-05-09T01:01:06.295Z,10.74
2023-05-09T01:02:06.253Z,10.73
2023-05-09T01:03:06.303Z,10.73
2023-05-09T01:04:06.221Z,10.73
2023-05-09T01:05:06.221Z,10.73
2023-05-09T01:06:06.180Z,10.72
2023-05-09T01:07:06.182Z,10.72
2023-05-09T01:08:06.176Z,10.72
2023-05-09T01:09:06.144Z,10.71
2023-05-09T01:10:06.138Z,10.71
2023-05-09T01:11:06.113Z,10.71
2023-05-09T01:12:06.106Z,10.71
2023-05-09T01:13:06.167Z,10.71
2023-05-09T01:14:06.156Z,10.71
2023-05-09T01:15:06.079Z,10.71
2023-05-09T01:16:06.112Z,10.72
2023-05-09T01:17:06.035Z,10.72
2023-05-09T01:18:06.038Z,10.72
2023-05-09T01:19:06.059Z,10.72
2023-05-09T01:20:05.999Z,10.72
2023-05-09T01:21:06.005Z,10.73
2023-05-09T01:22:05.977Z,10.73
2023-05-09T01:23:05.959Z,10.73
2023-05-09T01:24:05.950Z,10.73
2023-05-09T01:25:05.959Z,10.74
2023-05-09T01:26:05.924Z,10.74
2023-05-09T01:27:05.920Z,10.74
2023-05-09T01:28:05.898Z,10.75
2023-05-09T01:29:05.887Z,10.76
2023-05-09T01:30:05.869Z,10.77
2023-05-09T01:31:05.905Z,10.78
2023-05-09T01:32:05.862Z,10.79
2023-05-09T01:33:05.914Z,10.80
2023-05-09T01:34:05.852Z,10.81
2023-05-09T01:35:05.800Z,10.82
2023-05-09T01:36:05.789Z,10.83
2023-05-09T01:37:05.808Z,10.83
2023-05-09T01:38:05.761Z,10.83
2023-05-09T01:39:05.744Z,10.82
2023-05-09T01:40:05.745Z,10.81
2023-05-09T01:41:05.733Z,10.81
2023-05-09T01:42:05.741Z,10.80
2023-05-09T01:43:05.691Z,10.79
2023-05-09T01:44:05.775Z,10.79
2023-05-09T01:45:05.764Z,10.79
2023-05-09T01:46:05.957Z,10.79
2023-05-09T01:47:05.692Z,10.80
2023-05-09T01:48:05.796Z,10.81
2023-05-09T01:49:05.762Z,10.81
2023-05-09T01:50:05.694Z,10.80
2023-05-09T01:51:05.588Z,10.79
2023-05-09T01:52:05.594Z,10.78
2023-05-09T01:53:05.579Z,10.77
2023-05-09T01:54:05.580Z,10.75
2023-05-09T01:55:05.555Z,10.73
2023-05-09T01:56:05.678Z,10.72
2023-05-09T01:57:05.527Z,10.70
2023-05-09T01:58:05.518Z,10.69
2023-05-09T01:59:05.510Z,10.68
2023-05-09T02:00:05.472Z,10.66
2023-05-09T02:01:05.511Z,10.65
2023-05-09T02:02:05.461Z,10.64
2023-05-09T02:03:05.446Z,10.63
2023-05-09T02:04:05.433Z,10.62
2023-05-09T02:05:05.415Z,10.61
2023-05-09T02:06:05.397Z,10.59
2023-05-09T02:07:05.384Z,10.58
2023-05-09T02:08:05.373Z,10.56
2023-05-09T02:09:05.382Z,10.54
2023-05-09T02:10:05.343Z,10.51
2023-05-09T02:11:05.338Z,10.49
2023-05-09T02:12:05.323Z,10.46
2023-05-09T02:13:05.381Z,10.43
2023-05-09T02:14:05.281Z,10.41
2023-05-09T02:15:05.299Z,10.39
2023-05-09T02:16:05.305Z,10.37
2023-05-09T02:17:05.263Z,10.36
2023-05-09T02:18:05.309Z,10.35
2023-05-09T02:19:05.219Z,10.36
2023-05-09T02:20:05.207Z,10.38
2023-05-09T02:21:05.251Z,10.40
2023-05-09T02:22:05.332Z,10.43
2023-05-09T02:23:05.201Z,10.45
2023-05-09T02:24:05.153Z,10.47
2023-05-09T02:25:05.152Z,10.48
2023-05-09T02:26:05.131Z,10.50
2023-05-09T02:27:05.150Z,10.51
2023-05-09T02:28:05.105Z,10.53
2023-05-09T02:29:05.086Z,10.54
2023-05-09T02:30:05.076Z,10.55
2023-05-09T02:31:05.070Z,10.56
2023-05-09T02:32:05.124Z,10.57
2023-05-09T02:33:05.114Z,10.59
2023-05-09T02:34:05.057Z,10.60
2023-05-09T02:35:05.024Z,10.61
2023-05-09T02:36:04.999Z,10.61
2023-05-09T02:37:04.995Z,10.62
2023-05-09T02:38:04.997Z,10.63
2023-05-09T02:39:05.016Z,10.64
2023-05-09T02:40:04.937Z,10.65
2023-05-09T02:41:04.934Z,10.65
2023-05-09T02:42:04.932Z,10.65
2023-05-09T02:43:04.920Z,10.65
2023-05-09T02:44:04.892Z,10.66
2023-05-09T02:45:04.905Z,10.66
2023-05-09T02:46:04.900Z,10.67
2023-05-09T02:47:04.881Z,10.68
2023-05-09T02:48:07.746Z,10.69
2023-05-09T02:49:04.850Z,10.70
2023-05-09T02:50:04.824Z,10.72
2023-05-09T02:51:04.828Z,10.73
2023-05-09T02:52:04.811Z,10.74
2023-05-09T02:53:04.775Z,10.75
2023-05-09T02:54:04.763Z,10.75
2023-05-09T02:55:04.788Z,10.76
2023-05-09T02:56:04.737Z,10.76
2023-05-09T02:57:04.726Z,10.77
2023-05-09T02:58:13.511Z,10.78
2023-05-09T02:59:04.707Z,10.80
2023-05-09T03:00:04.677Z,10.82
2023-05-09T03:01:04.708Z,10.83
2023-05-09T03:02:04.672Z,10.84
2023-05-09T03:03:04.692Z,10.84
2023-05-09T03:04:04.641Z,10.83
2023-05-09T03:05:04.647Z,10.83
2023-05-09T03:06:04.608Z,10.82
2023-05-09T03:07:04.608Z,10.82
2023-05-09T03:08:04.582Z,10.82
2023-05-09T03:09:04.562Z,10.81
2023-05-09T03:10:04.601Z,10.81
2023-05-09T03:11:04.543Z,10.81
2023-05-09T03:12:04.577Z,10.81
2023-05-09T03:13:04.535Z,10.81
2023-05-09T03:14:04.511Z,10.81
2023-05-09T03:15:04.491Z,10.81
2023-05-09T03:16:04.526Z,10.81
2023-05-09T03:17:04.460Z,10.81
2023-05-09T03:18:04.515Z,10.81
2023-05-09T03:19:04.441Z,10.82
2023-05-09T03:20:04.668Z,10.82
2023-05-09T03:21:04.422Z,10.82
2023-05-09T03:22:04.424Z,10.83
2023-05-09T03:23:04.404Z,10.84
2023-05-09T03:24:04.385Z,10.85
2023-05-09T03:25:04.490Z,10.87
2023-05-09T03:26:04.364Z,10.88
2023-05-09T03:27:04.342Z,10.89
2023-05-09T03:28:04.331Z,10.90
2023-05-09T03:29:04.330Z,10.92
2023-05-09T03:30:04.284Z,10.93
2023-05-09T03:31:04.316Z,10.92
2023-05-09T03:32:04.267Z,10.92
2023-05-09T03:33:04.313Z,10.92
2023-05-09T03:34:04.243Z,10.92
2023-05-09T03:35:04.266Z,10.92
2023-05-09T03:36:04.225Z,10.93
2023-05-09T03:37:04.222Z,10.93
2023-05-09T03:38:04.199Z,10.94
2023-05-09T03:39:04.189Z,10.94
2023-05-09T03:40:04.165Z,10.94
2023-05-09T03:41:04.180Z,10.94
2023-05-09T03:42:04.144Z,10.94
2023-05-09T03:43:04.133Z,10.93
2023-05-09T03:44:04.121Z,10.93
2023-05-09T03:45:04.099Z,10.93
2023-05-09T03:46:04.091Z,10.94
2023-05-09T03:47:04.172Z,10.94
2023-05-09T03:48:04.173Z,10.95
2023-05-09T03:49:04.051Z,10.96
2023-05-09T03:50:04.035Z,10.97
2023-05-09T03:51:04.041Z,10.98
2023-05-09T03:52:04.009Z,10.98
2023-05-09T03:53:04.018Z,10.99
2023-05-09T03:54:03.984Z,10.99
2023-05-09T03:55:03.961Z,10.99
2023-05-09T03:56:03.973Z,11.00
2023-05-09T03:57:03.956Z,11.00
2023-05-09T03:58:03.962Z,11.00
2023-05-09T03:59:03.910Z,11.00
2023-05-09T04:00:03.974Z,11.01
2023-05-09T04:01:03.919Z,11.01
2023-05-09T04:02:03.904Z,11.01
2023-05-09T04:03:03.938Z,11.01
2023-05-09T04:04:03.939Z,11.01
2023-05-09T04:05:03.849Z,11.00
2023-05-09T04:06:03.829Z,11.01
2023-05-09T04:07:03.826Z,11.00
2023-05-09T04:08:03.796Z,11.00
2023-05-09T04:09:03.794Z,11.00
2023-05-09T04:10:03.822Z,11.00
2023-05-09T04:11:03.769Z,10.98
2023-05-09T04:12:03.748Z,10.96
2023-05-09T04:13:03.811Z,10.94
2023-05-09T04:14:03.725Z,10.92
2023-05-09T04:15:03.738Z,10.91
2023-05-09T04:16:03.727Z,10.90
2023-05-09T04:17:03.880Z,10.90
2023-05-09T04:18:03.715Z,10.90
2023-05-09T04:19:03.663Z,10.89
2023-05-09T04:20:03.660Z,10.89
2023-05-09T04:21:03.645Z,10.89
2023-05-09T04:22:03.644Z,10.87
2023-05-09T04:23:03.627Z,10.84
2023-05-09T04:24:03.612Z,10.83
2023-05-09T04:25:03.592Z,10.81
2023-05-09T04:26:03.568Z,10.81
2023-05-09T04:27:03.559Z,10.81
2023-05-09T04:28:03.617Z,10.82
2023-05-09T04:29:03.539Z,10.83
2023-05-09T04:30:03.522Z,10.84
2023-05-09T04:31:03.599Z,10.84
2023-05-09T04:32:03.549Z,10.85
2023-05-09T04:33:03.498Z,10.85
2023-05-09T04:34:03.494Z,10.86
2023-05-09T04:35:03.476Z,10.88
2023-05-09T04:36:03.442Z,10.89
2023-05-09T04:37:03.437Z,10.91
2023-05-09T04:38:03.412Z,10.93
2023-05-09T04:39:03.414Z,10.95
2023-05-09T04:40:03.423Z,10.98
2023-05-09T04:41:03.378Z,11.00
2023-05-09T04:42:03.379Z,11.01
2023-05-09T04:43:03.368Z,11.01
2023-05-09T04:44:03.362Z,11.02
2023-05-09T04:45:03.341Z,11.02
2023-05-09T04:46:03.401Z,11.02
2023-05-09T04:47:03.297Z,11.02
2023-05-09T04:48:03.317Z,11.03
2023-05-09T04:49:03.284Z,11.03
2023-05-09T04:50:03.288Z,11.03
2023-05-09T04:51:03.254Z,11.04
2023-05-09T04:52:03.269Z,11.05
2023-05-09T04:53:03.240Z,11.06
2023-05-09T04:54:03.216Z,11.07
2023-05-09T04:55:03.199Z,11.08
2023-05-09T04:56:03.190Z,11.10
2023-05-09T04:57:16.542Z,11.12
2023-05-09T04:58:03.170Z,11.15
2023-05-09T04:59:03.157Z,11.17
2023-05-09T05:00:03.149Z,11.20
2023-05-09T05:01:03.119Z,11.23
2023-05-09T05:02:03.309Z,11.26
2023-05-09T05:03:03.246Z,11.28
2023-05-09T05:04:03.090Z,11.29
2023-05-09T05:05:11.499Z,11.29
2023-05-09T05:06:03.064Z,11.27
2023-05-09T05:07:03.043Z,11.26
2023-05-09T05:08:03.040Z,11.26
2023-05-09T05:09:03.041Z,11.26
2023-05-09T05:10:03.003Z,11.28
2023-05-09T05:11:03.027Z,11.30
2023-05-09T05:12:04.936Z,11.31
2023-05-09T05:13:03.005Z,11.30
2023-05-09T05:14:02.990Z,11.30
2023-05-09T05:15:02.971Z,11.30
2023-05-09T05:16:02.975Z,11.31
2023-05-09T05:17:02.952Z,11.32
2023-05-09T05:18:03.002Z,11.34
2023-05-09T05:19:02.894Z,11.37
2023-05-09T05:20:02.873Z,11.41
2023-05-09T05:21:02.890Z,11.45
2023-05-09T05:22:02.851Z,11.49
2023-05-09T05:23:02.878Z,11.54
2023-05-09T05:24:02.813Z,11.56
2023-05-09T05:25:02.808Z,11.57
2023-05-09T05:26:02.818Z,11.57
2023-05-09T05:27:02.788Z,11.55
2023-05-09T05:28:02.776Z,11.52
2023-05-09T05:29:02.783Z,11.51
2023-05-09T05:30:02.772Z,11.52
2023-05-09T05:31:02.737Z,11.54
2023-05-09T05:32:02.744Z,11.57
2023-05-09T05:33:02.801Z,11.61
2023-05-09T05:34:02.701Z,11.64
2023-05-09T05:35:02.728Z,11.68
2023-05-09T05:36:02.675Z,11.73
2023-05-09T05:37:02.648Z,11.79
2023-05-09T05:38:02.663Z,11.86
2023-05-09T05:39:02.628Z,11.91
2023-05-09T05:40:02.615Z,11.94
2023-05-09T05:41:02.612Z,11.96
2023-05-09T05:42:02.604Z,12.00
2023-05-09T05:43:02.584Z,12.03
2023-05-09T05:44:02.570Z,12.04
2023-05-09T05:45:02.545Z,12.03
2023-05-09T05:46:02.568Z,12.02
2023-05-09T05:47:02.554Z,12.00
2023-05-09T05:48:02.731Z,11.97
2023-05-09T05:49:02.492Z,11.95
2023-05-09T05:50:02.500Z,11.97
2023-05-09T05:51:02.459Z,11.99
2023-05-09T05:52:02.459Z,12.01
2023-05-09T05:53:02.455Z,12.03
2023-05-09T05:54:02.444Z,12.07
2023-05-09T05:55:02.437Z,12.11
2023-05-09T05:56:02.431Z,12.15
2023-05-09T05:57:02.426Z,12.21
2023-05-09T05:58:02.382Z,12.24
2023-05-09T05:59:02.359Z,12.22
2023-05-09T06:00:02.629Z,12.21
2023-05-09T06:01:02.380Z,12.22
2023-05-09T06:02:02.387Z,12.25
2023-05-09T06:03:02.378Z,12.32
2023-05-09T06:04:02.349Z,12.39
2023-05-09T06:05:02.288Z,12.43
2023-05-09T06:06:02.288Z,12.45
2023-05-09T06:07:02.284Z,12.46
2023-05-09T06:08:02.247Z,12.48
2023-05-09T06:09:02.228Z,12.51
2023-05-09T06:10:02.229Z,12.51
2023-05-09T06:11:02.203Z,12.50
2023-05-09T06:12:02.209Z,12.51
2023-05-09T06:13:02.209Z,12.56
2023-05-09T06:14:02.188Z,12.60
2023-05-09T06:15:02.165Z,12.63
2023-05-09T06:16:14.976Z,12.68
2023-05-09T06:17:02.166Z,12.73
2023-05-09T06:18:02.168Z,12.79
2023-05-09T06:19:02.096Z,12.86
2023-05-09T06:20:02.099Z,12.95
2023-05-09T06:21:02.087Z,13.06
2023-05-09T06:22:02.103Z,13.16
2023-05-09T06:23:02.052Z,13.25
2023-05-09T06:24:08.524Z,13.29
2023-05-09T06:25:02.041Z,13.30
2023-05-09T06:26:02.007Z,13.34
2023-05-09T06:27:02.027Z,13.44
2023-05-09T06:28:01.983Z,13.58
2023-05-09T06:29:01.990Z,13.76
2023-05-09T06:30:08.336Z,13.93
2023-05-09T06:31:02.002Z,14.06
2023-05-09T06:32:01.935Z,14.15
2023-05-09T06:33:01.947Z,14.25
2023-05-09T06:34:01.902Z,14.36
2023-05-09T06:35:01.926Z,14.46
2023-05-09T06:36:01.877Z,14.55
2023-05-09T06:37:01.884Z,14.58
2023-05-09T06:38:01.862Z,14.52
2023-05-09T06:39:01.871Z,14.40
2023-05-09T06:40:01.904Z,14.26
2023-05-09T06:41:01.824Z,14.18
2023-05-09T06:42:01.815Z,14.19
2023-05-09T06:43:01.795Z,14.28
2023-05-09T06:44:01.795Z,14.36
2023-05-09T06:45:01.833Z,14.35
2023-05-09T06:46:01.838Z,14.26
2023-05-09T06:47:01.761Z,14.14
2023-05-09T06:48:01.754Z,14.03
2023-05-09T06:49:01.752Z,13.93
2023-05-09T06:50:01.735Z,13.83
2023-05-09T06:51:01.707Z,13.78
2023-05-09T06:52:01.707Z,13.77
2023-05-09T06:53:01.696Z,13.81
2023-05-09T06:54:01.662Z,13.92
2023-05-09T06:55:01.646Z,14.05
2023-05-09T06:56:01.631Z,14.15
2023-05-09T06:57:01.602Z,14.20
2023-05-09T06:58:01.631Z,14.20
2023-05-09T06:59:01.616Z,14.22
2023-05-09T07:00:01.631Z,14.27
2023-05-09T07:01:01.593Z,14.33
2023-05-09T07:02:01.650Z,14.39
2023-05-09T07:03:01.601Z,14.49
2023-05-09T07:04:01.549Z,14.62
2023-05-09T07:05:01.650Z,14.79
2023-05-09T07:06:01.509Z,14.96
2023-05-09T07:07:01.488Z,15.11
2023-05-09T07:08:01.488Z,15.23
2023-05-09T07:09:01.464Z,15.39
2023-05-09T07:10:10.462Z,15.60
2023-05-09T07:11:01.450Z,15.77
2023-05-09T07:12:01.421Z,15.89
2023-05-09T07:13:01.435Z,15.93
2023-05-09T07:14:01.393Z,15.90
2023-05-09T07:15:01.419Z,15.82
2023-05-09T07:16:01.415Z,15.71
2023-05-09T07:17:18.033Z,15.60
2023-05-09T07:18:01.380Z,15.50
2023-05-09T07:19:01.329Z,15.43
2023-05-09T07:20:01.334Z,15.36
2023-05-09T07:21:01.314Z,15.29
2023-05-09T07:22:01.323Z,15.26
2023-05-09T07:23:01.331Z,15.27
2023-05-09T07:24:01.288Z,15.23
2023-05-09T07:25:01.265Z,15.15
2023-05-09T07:26:01.272Z,15.05
2023-05-09T07:27:01.237Z,15.00
2023-05-09T07:28:01.252Z,15.00
2023-05-09T07:29:01.205Z,14.99
2023-05-09T07:30:01.208Z,14.98
2023-05-09T07:31:01.193Z,15.01
2023-05-09T07:32:01.255Z,15.07
2023-05-09T07:33:01.256Z,15.10
2023-05-09T07:34:01.157Z,15.12
2023-05-09T07:35:01.135Z,15.19
2023-05-09T07:36:01.138Z,15.28
2023-05-09T07:37:01.116Z,15.37
2023-05-09T07:38:01.113Z,15.47
2023-05-09T07:39:01.086Z,15.56
2023-05-09T07:40:01.100Z,15.58
2023-05-09T07:41:01.051Z,15.54
2023-05-09T07:42:01.051Z,15.47
2023-05-09T07:43:01.034Z,15.42
2023-05-09T07:44:01.039Z,15.39
2023-05-09T07:45:00.999Z,15.34
2023-05-09T07:46:01.029Z,15.24
2023-05-09T07:47:00.967Z,15.12
2023-05-09T07:48:01.018Z,15.06
2023-05-09T07:49:00.935Z,15.04
2023-05-09T07:50:00.954Z,15.01
2023-05-09T07:51:00.929Z,15.03
2023-05-09T07:52:00.907Z,15.10
2023-05-09T07:53:00.916Z,15.20
2023-05-09T07:54:00.882Z,15.28
2023-05-09T07:55:00.903Z,15.37
2023-05-09T07:56:00.929Z,15.44
2023-05-09T07:57:00.843Z,15.51
2023-05-09T07:58:00.819Z,15.53
2023-05-09T07:59:00.828Z,15.52
2023-05-09T08:00:00.803Z,15.55
2023-05-09T08:01:00.810Z,15.58
2023-05-09T08:02:00.834Z,15.66
2023-05-09T08:03:00.996Z,15.75
2023-05-09T08:04:00.919Z,15.82
2023-05-09T08:05:00.813Z,15.86
2023-05-09T08:06:00.802Z,15.89
2023-05-09T08:07:00.737Z,15.92
2023-05-09T08:08:00.741Z,16.09
2023-05-09T08:09:00.712Z,16.44
2023-05-09T08:10:00.674Z,16.85
2023-05-09T08:11:00.661Z,17.27
2023-05-09T08:12:00.704Z,17.70
2023-05-09T08:13:00.654Z,18.11
2023-05-09T08:14:00.642Z,18.47
2023-05-09T08:15:00.641Z,18.73
2023-05-09T08:16:00.714Z,18.88
2023-05-09T08:17:00.597Z,18.87
2023-05-09T08:18:00.644Z,18.85
2023-05-09T08:19:00.585Z,18.85
2023-05-09T08:20:00.611Z,18.88
2023-05-09T08:21:00.563Z,18.93
2023-05-09T08:22:00.563Z,18.77
2023-05-09T08:23:00.541Z,18.43
2023-05-09T08:24:00.535Z,18.12
2023-05-09T08:25:00.508Z,17.91
2023-05-09T08:26:00.588Z,17.76
2023-05-09T08:27:00.489Z,17.76
2023-05-09T08:28:00.467Z,17.98
2023-05-09T08:29:00.461Z,18.24
2023-05-09T08:30:00.474Z,18.47
2023-05-09T08:31:00.478Z,18.70
2023-05-09T08:32:00.417Z,19.04
2023-05-09T08:33:00.430Z,19.60
2023-05-09T08:34:00.401Z,20.14
2023-05-09T08:35:00.398Z,20.44
2023-05-09T08:36:00.426Z,20.25
2023-05-09T08:37:00.360Z,19.87
2023-05-09T08:38:00.352Z,19.62
2023-05-09T08:39:00.348Z,19.47
2023-05-09T08:40:00.372Z,19.42
2023-05-09T08:41:00.318Z,19.41
2023-05-09T08:42:00.334Z,19.44
2023-05-09T08:43:00.299Z,19.49
2023-05-09T08:44:00.288Z,19.41
2023-05-09T08:45:00.284Z,19.27
2023-05-09T08:46:00.520Z,19.26
2023-05-09T08:47:00.431Z,19.19
2023-05-09T08:48:00.291Z,19.02
2023-05-09T08:49:00.232Z,18.94
2023-05-09T08:50:00.214Z,18.84
2023-05-09T08:51:00.210Z,18.72
2023-05-09T08:52:00.269Z,18.64
2023-05-09T08:53:00.182Z,18.59
2023-05-09T08:54:00.184Z,18.51
2023-05-09T08:55:00.162Z,18.44
2023-05-09T08:56:00.159Z,18.52
2023-05-09T08:57:00.126Z,18.77
2023-05-09T08:58:00.158Z,19.09
2023-05-09T08:59:00.139Z,19.42
2023-05-09T09:00:00.152Z,19.77
2023-05-09T09:01:00.137Z,20.10
2023-05-09T09:02:00.172Z,20.39
2023-05-09T09:03:00.157Z,20.49
2023-05-09T09:04:00.046Z,20.38
2023-05-09T09:05:00.095Z,20.22
2023-05-09T09:06:00.040Z,20.15
2023-05-09T09:07:00.019Z,20.15
2023-05-09T09:07:59.997Z,20.20
2023-05-09T09:08:59.984Z,20.21
2023-05-09T09:09:59.969Z,20.06
2023-05-09T09:10:59.951Z,19.74
2023-05-09T09:11:59.965Z,19.31
2023-05-09T09:12:59.997Z,19.05
2023-05-09T09:13:59.921Z,18.98
2023-05-09T09:14:59.921Z,19.11
2023-05-09T09:16:00.229Z,19.53
2023-05-09T09:17:00.007Z,20.21
2023-05-09T09:18:00.358Z,21.09
2023-05-09T09:18:59.882Z,21.83
2023-05-09T09:19:59.862Z,22.34
2023-05-09T09:20:59.838Z,22.68
2023-05-09T09:21:59.851Z,23.19
2023-05-09T09:22:59.845Z,23.94
2023-05-09T09:23:59.828Z,24.73
2023-05-09T09:24:59.818Z,25.35
2023-05-09T09:26:00.255Z,25.72
2023-05-09T09:26:59.794Z,25.69
2023-05-09T09:27:59.798Z,25.27
2023-05-09T09:28:59.771Z,24.67
2023-05-09T09:29:59.769Z,24.11
2023-05-09T09:30:59.749Z,23.60
2023-05-09T09:31:59.778Z,23.22
2023-05-09T09:32:59.762Z,23.03
2023-05-09T09:33:59.815Z,22.99
2023-05-09T09:34:59.749Z,23.00
2023-05-09T09:35:59.731Z,23.25
2023-05-09T09:36:59.694Z,23.61
2023-05-09T09:38:00.204Z,23.81
2023-05-09T09:38:59.683Z,23.80
2023-05-09T09:39:59.645Z,23.89
2023-05-09T09:40:59.647Z,24.20
2023-05-09T09:41:59.640Z,24.58
2023-05-09T09:42:59.630Z,24.72
2023-05-09T09:43:59.658Z,24.61
2023-05-09T09:44:59.630Z,24.24
2023-05-09T09:45:59.646Z,23.58
2023-05-09T09:46:59.593Z,22.77
2023-05-09T09:47:59.653Z,22.15
2023-05-09T09:48:59.575Z,21.96
2023-05-09T09:49:59.590Z,22.44
2023-05-09T09:50:59.585Z,23.20
2023-05-09T09:51:59.619Z,23.76
2023-05-09T09:52:59.542Z,24.03
2023-05-09T09:53:59.531Z,24.16
2023-05-09T09:54:59.533Z,24.35
2023-05-09T09:55:59.535Z,24.77
2023-05-09T09:56:59.496Z,25.08
2023-05-09T09:57:59.502Z,24.98
2023-05-09T09:58:59.494Z,24.57
2023-05-09T09:59:59.474Z,24.12
2023-05-09T10:00:59.510Z,23.85
2023-05-09T10:01:59.455Z,23.67
2023-05-09T10:02:59.498Z,23.82
2023-05-09T10:03:59.476Z,24.10
2023-05-09T10:04:59.410Z,24.36
2023-05-09T10:05:59.403Z,24.65
2023-05-09T10:06:59.391Z,24.87
2023-05-09T10:07:59.464Z,25.05
2023-05-09T10:08:59.377Z,25.15
2023-05-09T10:09:59.358Z,24.95
2023-05-09T10:10:59.353Z,24.62
2023-05-09T10:11:59.350Z,24.55
2023-05-09T10:12:59.419Z,24.70
2023-05-09T10:13:59.403Z,24.82
2023-05-09T10:14:59.364Z,24.79
2023-05-09T10:15:59.507Z,24.76
2023-05-09T10:16:59.470Z,24.69
2023-05-09T10:17:59.501Z,24.70
2023-05-09T10:18:59.315Z,24.78
2023-05-09T10:19:59.306Z,24.97
2023-05-09T10:20:59.306Z,25.06
2023-05-09T10:21:59.260Z,24.90
2023-05-09T10:22:59.258Z,24.43
2023-05-09T10:23:59.260Z,24.05
2023-05-09T10:24:59.246Z,24.05
2023-05-09T10:25:59.300Z,24.19
2023-05-09T10:26:59.263Z,24.47
2023-05-09T10:27:59.225Z,24.78
2023-05-09T10:28:59.213Z,25.00
2023-05-09T10:29:59.194Z,25.09
2023-05-09T10:30:59.213Z,24.98
2023-05-09T10:31:59.176Z,24.86
2023-05-09T10:32:59.210Z,24.94
2023-05-09T10:33:59.195Z,25.02
2023-05-09T10:34:59.130Z,25.16
2023-05-09T10:35:59.152Z,25.52
2023-05-09T10:36:59.261Z,25.92
2023-05-09T10:37:59.143Z,26.25
2023-05-09T10:38:59.094Z,26.63
2023-05-09T10:39:59.093Z,27.06
2023-05-09T10:40:59.102Z,27.45
2023-05-09T10:41:59.081Z,27.68
2023-05-09T10:42:59.092Z,27.83
2023-05-09T10:43:59.066Z,27.81
2023-05-09T10:44:59.040Z,27.59
2023-05-09T10:45:59.081Z,27.47
2023-05-09T10:46:59.107Z,27.69
2023-05-09T10:47:59.032Z,28.08
2023-05-09T10:48:59.060Z,28.43
2023-05-09T10:49:59.019Z,28.45
2023-05-09T10:50:58.980Z,28.22
2023-05-09T10:51:59.036Z,27.54
2023-05-09T10:52:58.985Z,26.53
2023-05-09T10:53:58.968Z,25.81
2023-05-09T10:54:58.999Z,25.52
2023-05-09T10:55:58.990Z,25.60
2023-05-09T10:56:58.936Z,25.67
2023-05-09T10:57:58.978Z,25.50
2023-05-09T10:58:58.917Z,25.25
2023-05-09T10:59:58.909Z,25.01
2023-05-09T11:00:58.943Z,24.52
2023-05-09T11:01:58.943Z,23.79
2023-05-09T11:02:58.906Z,23.21
2023-05-09T11:03:58.955Z,22.75
2023-05-09T11:04:58.865Z,22.40
2023-05-09T11:05:58.875Z,22.19
2023-05-09T11:06:58.871Z,22.02
2023-05-09T11:07:58.838Z,21.86
2023-05-09T11:08:58.832Z,21.77
2023-05-09T11:09:58.827Z,21.74
2023-05-09T11:10:58.809Z,21.69
2023-05-09T11:11:58.795Z,21.66
2023-05-09T11:12:58.830Z,21.64
2023-05-09T11:13:58.786Z,21.59
2023-05-09T11:14:58.756Z,21.54
2023-05-09T11:15:58.765Z,21.56
2023-05-09T11:16:58.728Z,21.81
2023-05-09T11:17:58.764Z,22.30
2023-05-09T11:18:58.739Z,22.83
2023-05-09T11:19:58.722Z,23.20
2023-05-09T11:20:58.689Z,23.46
2023-05-09T11:21:58.684Z,23.52
2023-05-09T11:22:58.685Z,23.50
2023-05-09T11:23:58.699Z,23.62
2023-05-09T11:24:58.657Z,23.81
2023-05-09T11:25:58.656Z,23.86
2023-05-09T11:26:58.672Z,23.88
2023-05-09T11:27:58.626Z,23.99
2023-05-09T11:28:58.700Z,23.95
2023-05-09T11:29:58.693Z,23.75
2023-05-09T11:30:58.588Z,23.61
2023-05-09T11:31:58.683Z,23.55
2023-05-09T11:32:58.719Z,23.73
2023-05-09T11:33:58.597Z,24.12
2023-05-09T11:34:58.580Z,24.63
2023-05-09T11:35:58.631Z,25.04
2023-05-09T11:36:58.558Z,25.22
2023-05-09T11:37:58.551Z,25.18
2023-05-09T11:38:58.516Z,25.01
2023-05-09T11:39:58.567Z,24.92
2023-05-09T11:40:58.496Z,24.90
2023-05-09T11:41:58.511Z,24.93
2023-05-09T11:42:58.958Z,24.91
2023-05-09T11:43:58.482Z,24.80
2023-05-09T11:44:58.474Z,24.73
2023-05-09T11:45:58.542Z,24.52
2023-05-09T11:46:58.446Z,24.27
2023-05-09T11:47:58.476Z,24.22
2023-05-09T11:48:58.471Z,24.35
2023-05-09T11:49:58.450Z,24.45
2023-05-09T11:50:58.412Z,24.54
2023-05-09T11:51:58.483Z,24.78
2023-05-09T11:52:58.406Z,24.99
2023-05-09T11:53:58.418Z,24.95
2023-05-09T11:54:58.450Z,24.70
2023-05-09T11:55:58.364Z,24.64
2023-05-09T11:56:58.363Z,24.88
2023-05-09T11:57:58.423Z,24.97
2023-05-09T11:58:58.343Z,24.99
2023-05-09T11:59:58.356Z,25.19
2023-05-09T12:00:58.396Z,25.44
2023-05-09T12:01:58.378Z,25.53
2023-05-09T12:02:58.409Z,25.35
2023-05-09T12:03:58.460Z,25.05
2023-05-09T12:04:58.289Z,24.70
2023-05-09T12:05:58.313Z,24.37
2023-05-09T12:06:58.328Z,24.10
2023-05-09T12:07:58.265Z,23.84
2023-05-09T12:08:58.242Z,23.73
2023-05-09T12:09:58.285Z,23.89
2023-05-09T12:10:58.242Z,24.03
2023-05-09T12:11:58.237Z,24.22
2023-05-09T12:12:58.295Z,24.56
2023-05-09T12:13:58.212Z,24.89
2023-05-09T12:14:58.198Z,25.08
2023-05-09T12:15:58.269Z,25.06
2023-05-09T12:16:58.191Z,24.95
2023-05-09T12:17:58.199Z,24.83
2023-05-09T12:18:58.176Z,24.86
2023-05-09T12:19:58.149Z,25.11
2023-05-09T12:20:58.157Z,25.41
2023-05-09T12:21:58.177Z,25.57
2023-05-09T12:22:58.126Z,25.58
2023-05-09T12:23:58.113Z,25.49
2023-05-09T12:24:58.132Z,25.37
2023-05-09T12:25:58.114Z,25.27
2023-05-09T12:26:58.106Z,25.22
2023-05-09T12:27:58.126Z,25.09
2023-05-09T12:28:58.082Z,24.74
2023-05-09T12:29:58.056Z,24.27
2023-05-09T12:30:58.073Z,23.79
2023-05-09T12:31:58.049Z,23.38
2023-05-09T12:32:58.173Z,23.16
2023-05-09T12:33:58.070Z,23.11
2023-05-09T12:34:57.997Z,23.08
2023-05-09T12:35:58.016Z,23.00
2023-05-09T12:36:57.986Z,22.88
2023-05-09T12:37:57.964Z,22.79
2023-05-09T12:38:57.983Z,22.80
2023-05-09T12:39:57.956Z,22.71
2023-05-09T12:40:57.959Z,22.34
2023-05-09T12:42:01.901Z,21.88
2023-05-09T12:42:57.905Z,21.49
2023-05-09T12:43:57.933Z,21.23
2023-05-09T12:44:57.905Z,21.19
2023-05-09T12:45:57.865Z,21.33
2023-05-09T12:46:57.903Z,21.48
2023-05-09T12:47:57.897Z,21.59
2023-05-09T12:48:57.859Z,21.72
2023-05-09T12:49:57.825Z,21.86
2023-05-09T12:50:57.838Z,21.98
2023-05-09T12:51:57.807Z,22.01